Brejo Grande, Brazil
Current Conditions -  °F | °C
As of 3:00 PM on Saturday 25 Oct 2014 (Local Time) from SBAR Reporting Station
Few Clouds Few Clouds  
Wind Chill: 82°   Ceiling: Unl
Heat Index: 85°   Visibility: 6mi
Dew Point: 68°   Wind: 15mph
Humidity: 62%   Direction: 100°E
Pressure: 29.91"   Gusts: NA
Location:  10.43°S, 36.47°W
Report Text: SBAR 251800Z 10013KT 9999 FEW017 28/20 Q1013
Loading
Personal Weather Stations






























Interactive Weather Map
Tropical Storm Tracking
New forecast layout! Learn more

10-Day Weather Forecast

Advertisements
Track Severe Weather on mobile